Flight Track Log - Related Links

Times and Time Zones

All times are in EDT time to prevent confusion due to time zone crossing. See the QXE2397 flight status page for this flight to view local times or setup timezone preferences in your user account.


Time Position Orientation Groundspeed Altitude Reporting Facility
EDT Latitude Longitude Course Direction KTS MPH feet Rate Location/Type
Tue 10:01:00 PM 47.2031 -114.6546 294° West  Level FlightAware Approximate
Tue 10:02:00 PM 47.2334 -114.7670 296° West  Level FlightAware Approximate
Tue 10:03:00 PM 47.2682 -114.8777 282° West  Level FlightAware Approximate
Tue 10:04:00 PM 47.2873 -114.9966 294° West  Level FlightAware Approximate
Tue 10:05:00 PM 47.3210 -115.1087 294° West  Level FlightAware Approximate
Tue 10:06:00 PM 47.3498 -115.2235 288° West  Level FlightAware Approximate
Tue 10:07:00 PM 47.3757 -115.3401 288° West  Level FlightAware Approximate
Tue 10:08:00 PM 47.4018 -115.4566 292° West  Level FlightAware Approximate
Tue 10:09:00 PM 47.4329 -115.5704 292° West  Level FlightAware Approximate
Tue 10:10:00 PM 47.4366 -115.6888 275° West  Level Estimated
Tue 10:11:00 PM 47.4458 -115.8046 277° West  Level FlightAware Approximate
Tue 10:12:00 PM 47.4550 -115.9204 277° West  Level FlightAware Approximate
Tue 10:13:00 PM 47.4640 -116.0363 277° West  Level FlightAware Approximate
Tue 10:14:00 PM 47.4728 -116.1522 277° West  Level FlightAware Approximate
Tue 10:15:00 PM 47.4816 -116.2681 276° West  Level FlightAware Approximate
Tue 10:16:00 PM 47.4841 -116.3870 279° West  Level Estimated
Tue 10:17:00 PM 47.4925 -116.5054 276° West  Level FlightAware Approximate
Tue 10:18:00 PM 47.5008 -116.6237 276° West  Level FlightAware Approximate
Tue 10:19:00 PM 47.5089 -116.7421 276° West  Level FlightAware Approximate
Tue 10:20:00 PM 47.5170 -116.8605 276° West  Level FlightAware Approximate
Tue 10:21:00 PM 47.5249 -116.9790 276° West  Level FlightAware Approximate
Tue 10:22:00 PM 47.5327 -117.0975 276° West  Level FlightAware Approximate
Tue 10:23:00 PM 47.5404 -117.2161 276° West  Level FlightAware Approximate
Tue 10:24:00 PM 47.5480 -117.3346 275° West  Level FlightAware Approximate
Tue 10:25:00 PM 47.5554 -117.4532 275° West  Level FlightAware Approximate
Tue 10:26:00 PM 47.5628 -117.5719 275° West  Level FlightAware Approximate
Tue 10:27:00 PM 47.5700 -117.6906 275° West  Level FlightAware Approximate
Tue 10:28:00 PM 47.5770 -117.8092 275° West  Level FlightAware Approximate
Tue 10:29:00 PM 47.5847 -117.9305 278° West  Level FlightAware Approximate
Tue 10:30:00 PM 47.5962 -118.0485 278° West  Level FlightAware Approximate
Tue 10:31:00 PM 47.6077 -118.1665 278° West  Level FlightAware Approximate
Tue 10:32:00 PM 47.6189 -118.2846 278° West  Level FlightAware Approximate
Tue 10:33:00 PM 47.6301 -118.4027 278° West  Level FlightAware Approximate
Tue 10:34:00 PM 47.6412 -118.5209 278° West  Level FlightAware Approximate
Tue 10:35:00 PM 47.6564 -118.6378 278° West  Level FlightAware Approximate
Tue 10:36:00 PM 47.6668 -118.7557 278° West  Level FlightAware Approximate
Tue 10:37:00 PM 47.6774 -118.8766 277° West  Level FlightAware Approximate
Tue 10:38:00 PM 47.6878 -118.9976 277° West  Level FlightAware Approximate
Tue 10:39:00 PM 47.6982 -119.1186 277° West  Level FlightAware Approximate
Tue 10:40:00 PM 47.7084 -119.2396 277° West  Level FlightAware Approximate
Tue 10:41:00 PM 47.7184 -119.3607 277° West  Level FlightAware Approximate
Tue 10:42:00 PM 47.7284 -119.4819 277° West  Level FlightAware Approximate
Tue 10:43:00 PM 47.7382 -119.6031 277° West  Level FlightAware Approximate
Tue 10:44:00 PM 47.7478 -119.7243 277° West  Level FlightAware Approximate
Tue 10:45:00 PM 47.7574 -119.8456 277° West  Level FlightAware Approximate
Tue 10:46:00 PM 47.7668 -119.9669 277° West  Level FlightAware Approximate
Tue 10:47:00 PM 47.7761 -120.0883 277° West  Level FlightAware Approximate
Tue 10:48:00 PM 47.7851 -120.2097 276° West  Level FlightAware Approximate
Tue 10:49:00 PM 47.7934 -120.3313 276° West  Level FlightAware Approximate
Tue 10:50:00 PM 47.8016 -120.4529 276° West  Level FlightAware Approximate
Tue 10:51:00 PM 47.8096 -120.5746 276° West  Level FlightAware Approximate
Tue 10:52:00 PM 47.8167 -120.6963 270° West  Level FlightAware Approximate
Tue 10:53:00 PM 47.8207 -120.8183 277° West  Level FlightAware Approximate
Tue 10:54:00 PM 47.8300 -120.9398 277° West  Level FlightAware Approximate
Tue 10:55:00 PM 47.8348 -121.0616 281° West  Level FlightAware Approximate
Tue 10:56:00 PM 47.8498 -121.1818 281° West  Level FlightAware Approximate
Tue 10:57:00 PM 47.8586 -121.3035 276° West  Level FlightAware Approximate
Tue 10:58:00 PM 47.8672 -121.4252 276° West  Level FlightAware Approximate
Tue 10:59:00 PM 47.8754 -121.5470 276° West  Level FlightAware Approximate
Tue 11:00:00 PM 47.8833 -121.6688 270° West  Level FlightAware Approximate
Tue 11:01:00 PM 47.8325 -121.7508 214° Southwest  Level FlightAware Approximate
Tue 11:02:00 PM 47.7747 -121.8366 228° Southwest  Level FlightAware Approximate
Tue 11:03:00 PM 47.7165 -121.9225 222° Southwest  Level FlightAware Approximate
Tue 11:04:00 PM 47.6554 -122.0040 222° Southwest  Level FlightAware Approximate
Tue 11:05:00 PM 47.5898 -122.0769 214° Southwest  Level FlightAware Approximate
Tue 11:06:00 PM 47.5350 -122.1500 180° South  Level FlightAware Approximate

Login

Don't have an account? Register now (free) for customized features, flight alerts, and more!